Montezuma, Ohio
Current Conditions -  °F | °C
As of 9:32 AM on Monday 26 Jan 2015 (Local Time) from KAXV Reporting Station
Light Snow Light Snow  
Wind Chill:   Ceiling: 1300
Heat Index: 14°   Visibility: 7mi
Dew Point:   Wind: 10mph
Humidity: 79%   Direction: 330°NNW
Pressure: 29.92"   Gusts: NA
Location:  40.49°N, 84.55°W
Report Text: KAXV 261432Z AUTO 33009KT 7SM -SN OVC013 M10/M13 A2992 RMK AO2
Loading
Personal Weather Stations






























Interactive Weather Map New forecast layout! Learn more

10-Day Weather Forecast

Advertisements
Track Severe Weather on mobile